Time;durP1;ratioP1;P1;durP2;ratioP2;P2;SDS_P1;SDS_P2;PMS_P1;PMS_P2;Temp;Humidity;BMP_temperature;BMP_pressure;BME280_temperature;BME280_humidity;BME280_pressure;Samples;Min_cycle;Max_cycle;Signal;HPM_P1;HPM_P2
2021/05/26 00:00:11;;;;;;;3.78;1.40;;;;;;;7.24;100.00;96185.19;1031551;28;20041;-48
2021/05/26 00:00:42;;;;;;;6.00;1.95;;;;;;;7.27;100.00;96192.84;1031492;28;20579;-49
2021/05/26 00:01:13;;;;;;;3.95;1.65;;;;;;;7.28;100.00;96190.16;1035483;28;20040;-50
2021/05/26 00:01:43;;;;;;;3.85;1.45;;;;;;;7.32;100.00;96185.59;1039687;28;20267;-49
2021/05/26 00:02:14;;;;;;;6.15;1.63;;;;;;;7.38;100.00;96193.13;1035491;28;20117;-49
2021/05/26 00:02:46;;;;;;;3.75;1.55;;;;;;;7.37;100.00;96187.03;1031341;28;20019;-48
2021/05/26 00:03:17;;;;;;;8.25;1.77;;;;;;;7.32;100.00;96188.22;1031646;28;20447;-50
2021/05/26 00:03:47;;;;;;;7.03;1.70;;;;;;;7.32;100.00;96183.88;1031430;28;20253;-49
2021/05/26 00:04:19;;;;;;;4.60;1.83;;;;;;;7.31;100.00;96181.34;1035594;28;20419;-49
2021/05/26 00:04:51;;;;;;;4.88;1.45;;;;;;;7.32;100.00;96183.00;1037713;28;20260;-52
2021/05/26 00:05:22;;;;;;;3.58;1.60;;;;;;;7.30;100.00;96182.25;1035646;28;20272;-50
2021/05/26 00:05:53;;;;;;;5.22;1.67;;;;;;;7.22;100.00;96176.63;1035753;28;20655;-48
2021/05/26 00:06:25;;;;;;;9.00;1.67;;;;;;;7.29;100.00;96175.38;1035632;28;20249;-51
2021/05/26 00:06:55;;;;;;;4.20;1.58;;;;;;;7.34;100.00;96179.41;1035433;28;20806;-48
2021/05/26 00:07:26;;;;;;;5.05;1.50;;;;;;;7.35;100.00;96183.69;1039646;28;20273;-51
2021/05/26 00:07:57;;;;;;;4.10;1.70;;;;;;;7.35;100.00;96175.03;1039700;28;20026;-47
2021/05/26 00:08:31;;;;;;;5.90;1.70;;;;;;;7.33;100.00;96176.88;1043873;28;20024;-51
2021/05/26 00:09:02;;;;;;;4.85;1.40;;;;;;;7.36;100.00;96176.72;1039060;28;20026;-48
2021/05/26 00:09:33;;;;;;;4.85;1.50;;;;;;;7.30;100.00;96167.47;1039668;28;20256;-48
2021/05/26 00:10:05;;;;;;;5.47;1.52;;;;;;;7.31;100.00;96170.91;1035680;28;20268;-48
2021/05/26 00:10:36;;;;;;;3.63;1.42;;;;;;;7.25;100.00;96168.66;1035565;28;20032;-50
2021/05/26 00:11:09;;;;;;;5.75;1.63;;;;;;;7.25;100.00;96166.88;1031488;28;20277;-47
2021/05/26 00:11:40;;;;;;;4.53;1.30;;;;;;;7.26;100.00;96165.09;1038816;28;20017;-48
2021/05/26 00:12:12;;;;;;;6.82;1.52;;;;;;;7.25;100.00;96172.09;1047823;28;20354;-51
2021/05/26 00:12:43;;;;;;;5.10;1.42;;;;;;;7.27;100.00;96170.22;1047670;28;20263;-49
2021/05/26 00:13:14;;;;;;;4.65;1.70;;;;;;;7.27;100.00;96169.41;1043836;28;20251;-48
2021/05/26 00:13:46;;;;;;;3.67;1.50;;;;;;;7.27;100.00;96167.63;1039495;28;20279;-50
2021/05/26 00:14:16;;;;;;;4.25;1.60;;;;;;;7.22;100.00;96172.22;1039568;28;20029;-49
2021/05/26 00:14:47;;;;;;;4.13;1.63;;;;;;;7.20;100.00;96166.25;1035516;28;20317;-49
2021/05/26 00:15:19;;;;;;;5.03;2.00;;;;;;;7.20;100.00;96174.09;1039682;28;20025;-49
2021/05/26 00:15:50;;;;;;;5.88;2.00;;;;;;;7.23;100.00;96170.50;1043757;28;20313;-49
2021/05/26 00:16:22;;;;;;;4.20;1.50;;;;;;;7.25;100.00;96172.09;1035595;28;20284;-51
2021/05/26 00:16:53;;;;;;;4.88;1.20;;;;;;;7.17;100.00;96172.50;1043715;28;20662;-48
2021/05/26 00:17:24;;;;;;;4.25;1.60;;;;;;;7.23;100.00;96175.69;1035552;28;20248;-49
2021/05/26 00:17:55;;;;;;;4.60;1.48;;;;;;;7.19;100.00;96169.81;1039709;28;20021;-49
2021/05/26 00:18:26;;;;;;;3.67;1.38;;;;;;;7.26;100.00;96173.75;1035583;28;20076;-48
2021/05/26 00:18:57;;;;;;;4.13;1.63;;;;;;;7.31;100.00;96171.75;1041826;28;20926;-48
2021/05/26 00:19:28;;;;;;;3.47;1.40;;;;;;;7.28;100.00;96168.47;1039571;28;20017;-50
2021/05/26 00:20:00;;;;;;;3.92;1.58;;;;;;;7.29;100.00;96168.38;1031527;28;20265;-50
2021/05/26 00:20:31;;;;;;;2.80;1.23;;;;;;;7.28;100.00;96155.44;1035609;28;20520;-49
2021/05/26 00:21:03;;;;;;;3.53;1.60;;;;;;;7.25;100.00;96153.00;1035501;28;20273;-49
2021/05/26 00:21:35;;;;;;;3.78;1.50;;;;;;;7.27;100.00;96167.63;1035566;28;20356;-50
2021/05/26 00:22:06;;;;;;;7.30;1.95;;;;;;;7.25;100.00;96158.22;1039633;28;20306;-48
2021/05/26 00:22:36;;;;;;;5.60;1.67;;;;;;;7.23;100.00;96162.66;1035564;28;20336;-49
2021/05/26 00:23:08;;;;;;;5.20;1.73;;;;;;;7.27;100.00;96164.19;1035597;28;20446;-47
2021/05/26 00:23:39;;;;;;;4.78;1.38;;;;;;;7.25;100.00;96156.44;1031312;28;20258;-48
2021/05/26 00:24:10;;;;;;;4.57;1.50;;;;;;;7.26;100.00;96165.09;1039621;28;20267;-51
2021/05/26 00:24:41;;;;;;;3.78;1.52;;;;;;;7.25;100.00;96159.06;1035619;28;20260;-51
2021/05/26 00:25:14;;;;;;;2.85;1.23;;;;;;;7.26;100.00;96158.09;1035409;28;20264;-49
2021/05/26 00:25:45;;;;;;;3.40;1.33;;;;;;;7.25;100.00;96159.06;1035567;28;20310;-49
2021/05/26 00:26:16;;;;;;;2.95;1.20;;;;;;;7.22;100.00;96155.75;1035577;28;20406;-49
2021/05/26 00:26:47;;;;;;;2.42;1.15;;;;;;;7.24;100.00;96159.97;1039752;28;20754;-50
2021/05/26 00:27:18;;;;;;;3.90;1.52;;;;;;;7.20;100.00;96154.06;1035478;28;20052;-49
2021/05/26 00:27:57;;;;;;;5.10;1.65;;;;;;;7.20;100.00;96159.28;1039667;28;20519;-49
2021/05/26 00:28:29;;;;;;;4.50;1.60;;;;;;;7.19;100.00;96162.00;1035587;28;20681;-49
2021/05/26 00:29:00;;;;;;;3.78;1.45;;;;;;;7.10;100.00;96154.66;1035583;28;20034;-50
2021/05/26 00:29:30;;;;;;;4.93;1.50;;;;;;;7.11;100.00;96151.94;1035376;28;20040;-49
2021/05/26 00:30:02;;;;;;;4.68;1.60;;;;;;;7.04;100.00;96154.97;1035595;28;20022;-49
2021/05/26 00:30:42;;;;;;;4.15;1.70;;;;;;;7.04;100.00;96155.84;1031518;28;20022;-49
2021/05/26 00:31:14;;;;;;;;;;;;;;;7.06;100.00;96159.19;1032023;28;20254;-48
2021/05/26 00:31:44;;;;;;;5.70;1.92;;;;;;;7.05;100.00;96156.66;1031426;28;19909;-50
2021/05/26 00:32:16;;;;;;;3.72;1.50;;;;;;;7.07;100.00;96158.25;1039614;28;20018;-47
2021/05/26 00:32:47;;;;;;;4.63;1.60;;;;;;;7.02;100.00;96162.88;1039620;28;20014;-49
2021/05/26 00:33:18;;;;;;;5.28;1.90;;;;;;;6.99;100.00;96157.84;1031414;28;20631;-50
2021/05/26 00:33:50;;;;;;;4.97;1.55;;;;;;;7.03;100.00;96155.91;1031197;28;20033;-49
2021/05/26 00:34:21;;;;;;;5.20;1.58;;;;;;;7.05;100.00;96160.09;1035470;28;20295;-49
2021/05/26 00:34:52;;;;;;;5.95;1.70;;;;;;;7.08;100.00;96157.34;1039676;28;20373;-50
2021/05/26 00:35:23;;;;;;;4.32;1.65;;;;;;;7.09;100.00;96161.63;1035585;28;20024;-49
2021/05/26 00:35:54;;;;;;;4.25;1.70;;;;;;;7.06;100.00;96163.53;1035438;28;20272;-50
2021/05/26 00:36:25;;;;;;;7.47;1.50;;;;;;;7.03;100.00;96164.56;1039613;28;20341;-50
2021/05/26 00:36:56;;;;;;;7.63;1.67;;;;;;;7.01;100.00;96161.19;1035618;28;20620;-49
2021/05/26 00:37:28;;;;;;;6.15;1.77;;;;;;;7.04;100.00;96160.19;1035571;28;20052;-51
2021/05/26 00:37:59;;;;;;;4.85;1.70;;;;;;;7.03;100.00;96161.13;1035406;28;20622;-51
2021/05/26 00:38:30;;;;;;;4.43;1.50;;;;;;;7.06;100.00;96163.53;1035589;28;20241;-48
2021/05/26 00:39:01;;;;;;;5.22;1.48;;;;;;;7.05;100.00;96159.28;1031546;28;20018;-49
2021/05/26 00:39:32;;;;;;;4.60;1.52;;;;;;;7.02;100.00;96157.69;1035521;28;20257;-49
2021/05/26 00:40:04;;;;;;;5.30;1.55;;;;;;;7.00;100.00;96160.34;1031314;28;20480;-49
2021/05/26 00:40:35;;;;;;;4.47;1.50;;;;;;;7.01;100.00;96151.59;1031507;28;20249;-49
2021/05/26 00:41:06;;;;;;;4.15;1.52;;;;;;;7.03;100.00;96161.13;1035576;28;20787;-51
2021/05/26 00:41:37;;;;;;;7.57;1.73;;;;;;;6.94;100.00;96152.00;1035609;28;20026;-50
2021/05/26 00:42:08;;;;;;;5.03;1.40;;;;;;;6.97;100.00;96164.88;1039367;28;20018;-49
2021/05/26 00:42:39;;;;;;;4.07;1.63;;;;;;;7.01;100.00;96159.41;1031460;28;20019;-49
2021/05/26 00:43:11;;;;;;;3.45;1.30;;;;;;;7.00;100.00;96157.75;1035602;28;20558;-52
2021/05/26 00:43:42;;;;;;;5.60;1.95;;;;;;;7.01;100.00;96149.00;1039426;28;20685;-49
2021/05/26 00:44:15;;;;;;;3.22;1.52;;;;;;;7.03;100.00;96153.31;1039457;28;20287;-49
2021/05/26 00:44:51;;;;;;;7.00;2.10;;;;;;;6.93;100.00;96145.97;1039557;28;20398;-51
2021/05/26 00:45:22;;;;;;;7.22;1.70;;;;;;;6.99;100.00;96155.22;1031517;28;20312;-50
2021/05/26 00:45:53;;;;;;;3.67;1.27;;;;;;;7.01;100.00;96154.22;1031470;28;20337;-47
2021/05/26 00:46:24;;;;;;;3.67;1.40;;;;;;;7.00;100.00;96155.16;1035409;28;20466;-49
2021/05/26 00:46:55;;;;;;;5.05;1.52;;;;;;;7.01;100.00;96150.78;1035538;28;20284;-50
2021/05/26 00:47:37;;;;;;;8.95;1.95;;;;;;;7.00;100.00;96152.53;1035484;28;20249;-50
2021/05/26 00:48:08;;;;;;;3.30;1.50;;;;;;;6.99;100.00;96153.44;1035555;28;20268;-47
2021/05/26 00:48:38;;;;;;;3.58;1.70;;;;;;;6.99;100.00;96147.41;1035511;28;20263;-51
2021/05/26 00:49:10;;;;;;;3.35;1.33;;;;;;;6.99;100.00;96145.63;1035435;28;20022;-50
2021/05/26 00:49:41;;;;;;;3.75;1.33;;;;;;;6.96;100.00;96148.44;1035577;28;20608;-49
2021/05/26 00:50:15;;;;;;;5.72;1.63;;;;;;;7.00;100.00;96149.94;1031358;28;20262;-49
2021/05/26 00:50:46;;;;;;;4.22;1.98;;;;;;;6.99;100.00;96148.25;1035474;28;20054;-51
2021/05/26 00:51:18;;;;;;;6.10;2.35;;;;;;;6.95;100.00;96144.13;1035506;28;20269;-50
2021/05/26 00:51:49;;;;;;;4.10;1.80;;;;;;;6.97;100.00;96146.66;1039670;28;20240;-50
2021/05/26 00:52:20;;;;;;;3.28;1.52;;;;;;;6.98;100.00;96148.31;1039343;28;20280;-47
2021/05/26 00:52:52;;;;;;;4.35;1.27;;;;;;;6.98;100.00;96143.97;1043683;28;20709;-50
2021/05/26 00:53:24;;;;;;;3.58;1.38;;;;;;;6.97;100.00;96141.44;1039588;28;20026;-49
2021/05/26 00:53:55;;;;;;;5.68;1.48;;;;;;;6.94;100.00;96139.00;1035385;28;20265;-51
2021/05/26 00:54:26;;;;;;;4.10;1.50;;;;;;;6.92;100.00;96144.28;1034990;28;20261;-49
2021/05/26 00:54:57;;;;;;;5.53;1.55;;;;;;;6.88;100.00;96142.75;1039576;28;20052;-47
2021/05/26 00:55:28;;;;;;;3.90;1.60;;;;;;;6.85;100.00;96139.47;1035440;28;20261;-49
2021/05/26 00:55:59;;;;;;;4.20;1.80;;;;;;;6.76;100.00;96143.41;1031530;28;20020;-49
2021/05/26 00:56:32;;;;;;;5.97;1.83;;;;;;;6.80;100.00;96139.72;1035418;28;20272;-50
2021/05/26 00:57:04;;;;;;;4.22;1.50;;;;;;;6.80;100.00;96143.16;1036087;28;20026;-48
2021/05/26 00:57:34;;;;;;;4.72;2.03;;;;;;;6.79;100.00;96146.72;1035577;28;20249;-50
2021/05/26 00:58:06;;;;;;;3.42;1.60;;;;;;;6.83;100.00;96139.53;1035473;28;20284;-48
2021/05/26 00:58:37;;;;;;;2.97;1.40;;;;;;;6.80;100.00;96135.34;1031369;28;20022;-49
2021/05/26 00:59:08;;;;;;;3.65;2.03;;;;;;;6.81;100.00;96141.38;1031488;28;20258;-47
2021/05/26 00:59:39;;;;;;;3.58;1.60;;;;;;;6.82;100.00;96133.50;1035547;28;20284;-51
2021/05/26 01:00:11;;;;;;;3.80;1.60;;;;;;;6.81;100.00;96133.56;1040197;28;20868;-50
2021/05/26 01:00:42;;;;;;;4.63;1.58;;;;;;;6.85;100.00;96136.88;1035375;28;20538;-49
2021/05/26 01:01:13;;;;;;;5.43;2.33;;;;;;;6.80;100.00;96132.75;1031320;28;20274;-51
2021/05/26 01:01:44;;;;;;;3.22;1.30;;;;;;;6.81;100.00;96125.75;1031508;28;20022;-49
2021/05/26 01:02:14;;;;;;;3.53;1.58;;;;;;;6.79;100.00;96131.09;1035447;28;20018;-48
2021/05/26 01:02:46;;;;;;;4.55;1.63;;;;;;;6.80;100.00;96132.75;1035407;28;20018;-50
2021/05/26 01:03:17;;;;;;;3.95;1.70;;;;;;;6.86;100.00;96128.16;1031401;28;20097;-50
2021/05/26 01:03:48;;;;;;;4.65;1.70;;;;;;;6.83;100.00;96131.72;1039718;28;20268;-51
2021/05/26 01:04:19;;;;;;;3.95;1.52;;;;;;;6.86;100.00;96130.75;1032153;28;20299;-49
2021/05/26 01:04:49;;;;;;;4.32;1.70;;;;;;;6.85;100.00;96134.25;1040505;28;20026;-50
2021/05/26 01:05:22;;;;;;;4.07;1.73;;;;;;;6.86;100.00;96121.16;1040273;28;20414;-48
2021/05/26 01:05:53;;;;;;;4.32;1.50;;;;;;;6.90;100.00;96129.66;1036240;28;20037;-50
2021/05/26 01:06:24;;;;;;;3.70;1.50;;;;;;;6.88;100.00;96121.91;1040224;28;20260;-49
2021/05/26 01:06:54;;;;;;;3.72;1.48;;;;;;;6.88;100.00;96127.13;1036222;28;20643;-49
2021/05/26 01:07:25;;;;;;;4.50;1.73;;;;;;;6.86;100.00;96121.16;1040353;28;20028;-51
2021/05/26 01:07:56;;;;;;;3.78;1.40;;;;;;;6.82;100.00;96117.03;1044466;28;20498;-49
2021/05/26 01:08:28;;;;;;;5.32;1.88;;;;;;;6.83;100.00;96126.53;1036230;28;20182;-50
2021/05/26 01:08:59;;;;;;;4.07;1.40;;;;;;;6.85;100.00;96123.84;1035939;28;20252;-49
2021/05/26 01:09:30;;;;;;;3.45;1.48;;;;;;;6.80;100.00;96122.31;1036136;28;20253;-51
2021/05/26 01:10:01;;;;;;;3.67;1.45;;;;;;;6.81;100.00;96124.03;1036254;28;20022;-49
2021/05/26 01:10:33;;;;;;;2.92;1.50;;;;;;;6.80;100.00;96132.75;1032163;28;20593;-48
2021/05/26 01:11:05;;;;;;;5.25;1.63;;;;;;;6.80;100.00;96117.13;1040236;28;20264;-49
2021/05/26 01:11:35;;;;;;;5.50;1.70;;;;;;;6.82;100.00;96123.09;1042813;28;20310;-51
2021/05/26 01:12:08;;;;;;;3.42;1.40;;;;;;;6.80;100.00;96119.72;1036282;28;20296;-49
2021/05/26 01:12:38;;;;;;;6.68;1.95;;;;;;;6.74;100.00;96109.63;1036130;28;20085;-48
2021/05/26 01:13:10;;;;;;;3.63;1.60;;;;;;;6.70;100.00;96115.94;1036173;28;20296;-50
2021/05/26 01:13:41;;;;;;;5.80;1.42;;;;;;;6.69;100.00;96122.06;1040005;28;20387;-48
2021/05/26 01:14:12;;;;;;;3.67;1.58;;;;;;;6.72;100.00;96121.91;1036182;28;20307;-48
2021/05/26 01:14:43;;;;;;;4.43;1.50;;;;;;;6.72;100.00;96114.09;1040352;28;20387;-50
2021/05/26 01:15:15;;;;;;;3.10;1.40;;;;;;;6.75;100.00;96113.91;1040257;28;20455;-48
2021/05/26 01:15:46;;;;;;;4.60;1.50;;;;;;;6.78;100.00;96115.53;1044386;28;20266;-48
2021/05/26 01:16:17;;;;;;;4.78;1.65;;;;;;;6.79;100.00;96118.06;1044372;28;20370;-50
2021/05/26 01:16:49;;;;;;;4.80;1.65;;;;;;;6.79;100.00;96114.59;1044427;28;20248;-49
2021/05/26 01:17:20;;;;;;;3.80;1.50;;;;;;;6.77;100.00;96109.47;1040301;28;20657;-51
2021/05/26 01:17:52;;;;;;;3.83;1.60;;;;;;;6.73;100.00;96114.91;1040221;28;20605;-48
2021/05/26 01:18:25;;;;;;;5.07;1.73;;;;;;;6.74;100.00;96117.44;1040135;28;20253;-49
2021/05/26 01:18:56;;;;;;;4.38;1.40;;;;;;;6.76;100.00;96114.78;1048056;28;20694;-50
2021/05/26 01:19:27;;;;;;;5.22;1.30;;;;;;;6.69;100.00;96116.84;1044976;28;20251;-51
2021/05/26 01:19:58;;;;;;;4.63;1.50;;;;;;;6.65;100.00;96115.31;1036158;28;20245;-50
2021/05/26 01:20:30;;;;;;;4.80;1.50;;;;;;;6.62;100.00;96115.47;1044418;28;20251;-49
2021/05/26 01:21:04;;;;;;;3.95;1.75;;;;;;;6.59;100.00;96113.06;1036086;28;20025;-49
2021/05/26 01:21:35;;;;;;;3.03;1.25;;;;;;;6.60;100.00;96117.31;1036059;28;20851;-49
2021/05/26 01:22:07;;;;;;;5.05;1.55;;;;;;;6.59;100.00;96105.25;1032126;28;20265;-49
2021/05/26 01:22:38;;;;;;;3.17;1.50;;;;;;;6.64;100.00;96115.41;1036058;28;20253;-49
2021/05/26 01:23:09;;;;;;;4.78;1.60;;;;;;;6.60;100.00;96112.13;1036096;28;20265;-47
2021/05/26 01:23:41;;;;;;;4.55;1.58;;;;;;;6.59;100.00;96115.66;1035714;28;20026;-49
2021/05/26 01:24:12;;;;;;;2.95;1.42;;;;;;;6.58;100.00;96113.97;1040681;28;20348;-51
2021/05/26 01:24:44;;;;;;;3.95;1.40;;;;;;;6.58;100.00;96117.41;1036150;28;20291;-49
2021/05/26 01:25:15;;;;;;;4.60;1.42;;;;;;;6.59;100.00;96115.66;1032063;28;20118;-47
2021/05/26 01:25:50;;;;;;;4.97;1.88;;;;;;;6.58;100.00;96109.59;1040107;28;20248;-48
2021/05/26 01:26:21;;;;;;;3.72;1.67;;;;;;;6.59;100.00;96113.88;1031983;28;20242;-49
2021/05/26 01:26:52;;;;;;;3.70;1.52;;;;;;;6.63;100.00;96108.53;1036140;28;20781;-49
2021/05/26 01:27:23;;;;;;;3.80;1.50;;;;;;;6.64;100.00;96110.19;1031991;28;20289;-49
2021/05/26 01:27:57;;;;;;;4.38;1.40;;;;;;;6.62;100.00;96110.25;1040165;28;20335;-51
2021/05/26 01:28:29;;;;;;;3.53;1.60;;;;;;;6.60;100.00;96109.50;1040173;28;20279;-50
2021/05/26 01:29:00;;;;;;;3.50;1.67;;;;;;;6.58;100.00;96106.97;1036200;28;20611;-50
2021/05/26 01:29:31;;;;;;;3.60;1.50;;;;;;;6.57;100.00;96107.09;1036151;28;20646;-49
2021/05/26 01:30:06;;;;;;;4.47;1.65;;;;;;;6.52;100.00;96114.28;1035946;28;20260;-49
2021/05/26 01:30:37;;;;;;;4.63;1.45;;;;;;;6.55;100.00;96103.69;1036177;28;20248;-49
2021/05/26 01:31:08;;;;;;;5.53;1.55;;;;;;;6.59;100.00;96108.69;1032111;28;20273;-51
2021/05/26 01:31:39;;;;;;;3.75;1.75;;;;;;;6.58;100.00;96113.97;1032112;28;20254;-50
2021/05/26 01:32:10;;;;;;;3.20;1.40;;;;;;;6.53;100.00;96109.00;1031879;28;20014;-49
2021/05/26 01:32:51;;;;;;;3.17;1.42;;;;;;;6.57;100.00;96104.47;1032008;28;20038;-49
2021/05/26 01:33:22;;;;;;;2.38;1.20;;;;;;;6.61;100.00;96114.63;1032055;28;20732;-48
2021/05/26 01:33:53;;;;;;;4.65;1.70;;;;;;;6.60;100.00;96101.69;1035944;28;20256;-48
2021/05/26 01:34:24;;;;;;;5.60;1.70;;;;;;;6.55;100.00;96108.91;1031830;28;20026;-48
2021/05/26 01:34:55;;;;;;;5.15;1.60;;;;;;;6.56;100.00;96108.00;1044345;28;20013;-49
2021/05/26 01:35:26;;;;;;;3.97;1.40;;;;;;;6.57;100.00;96102.72;1036155;28;20018;-48
2021/05/26 01:35:57;;;;;;;5.03;1.40;;;;;;;6.57;100.00;96101.88;1036160;28;20547;-48
2021/05/26 01:36:29;;;;;;;4.22;1.52;;;;;;;6.59;100.00;96102.63;1036054;28;20252;-49
2021/05/26 01:37:00;;;;;;;3.25;1.30;;;;;;;6.62;100.00;96105.06;1036054;28;20289;-48
2021/05/26 01:37:31;;;;;;;3.70;1.50;;;;;;;6.60;100.00;96101.69;1036175;28;20237;-49
2021/05/26 01:38:02;;;;;;;4.10;1.52;;;;;;;6.60;100.00;96102.53;1032093;28;20014;-49
2021/05/26 01:38:33;;;;;;;3.20;1.40;;;;;;;6.61;100.00;96104.22;1040051;28;20633;-50
2021/05/26 01:39:05;;;;;;;2.22;1.20;;;;;;;6.58;100.00;96103.53;1040268;28;20509;-49
2021/05/26 01:39:36;;;;;;;4.25;1.50;;;;;;;6.56;100.00;96100.19;1036157;28;20014;-49
2021/05/26 01:40:08;;;;;;;4.28;1.48;;;;;;;6.54;100.00;96108.06;1044295;28;20252;-52
2021/05/26 01:40:39;;;;;;;3.88;1.40;;;;;;;6.52;100.00;96098.66;1035935;28;20567;-49
2021/05/26 01:41:10;;;;;;;3.95;1.52;;;;;;;6.57;100.00;96101.88;1036104;28;20316;-50
2021/05/26 01:41:42;;;;;;;4.68;1.70;;;;;;;6.55;100.00;96098.47;1036101;28;20324;-49
2021/05/26 01:42:29;;;;;;;3.53;1.45;;;;;;;6.52;100.00;96106.47;1040194;28;20100;-50
2021/05/26 01:43:00;;;;;;;2.78;1.20;;;;;;;6.57;100.00;96109.69;1036134;28;20261;-50
2021/05/26 01:43:32;;;;;;;3.70;1.48;;;;;;;6.58;100.00;96104.38;1035983;28;20253;-49
2021/05/26 01:44:04;;;;;;;3.42;1.20;;;;;;;6.57;100.00;96097.50;1036136;28;20025;-50
2021/05/26 01:44:36;;;;;;;4.68;1.95;;;;;;;6.59;100.00;96102.63;1031839;28;20635;-49
2021/05/26 01:45:09;;;;;;;2.30;1.20;;;;;;;6.60;100.00;96097.31;1040150;28;20240;-49
2021/05/26 01:45:40;;;;;;;2.85;1.30;;;;;;;6.61;100.00;96099.03;1040162;28;20252;-47
2021/05/26 01:46:12;;;;;;;4.63;1.48;;;;;;;6.60;100.00;96096.50;1036043;28;20255;-49
2021/05/26 01:46:43;;;;;;;3.75;1.58;;;;;;;6.55;100.00;96095.88;1035852;28;20249;-49
2021/05/26 01:47:14;;;;;;;4.93;1.60;;;;;;;6.58;100.00;96095.72;1040048;28;20328;-49
2021/05/26 01:47:48;;;;;;;5.78;1.50;;;;;;;6.60;100.00;96096.50;1036099;28;20249;-48
2021/05/26 01:48:19;;;;;;;4.50;1.40;;;;;;;6.65;100.00;96091.91;1036137;28;20289;-50
2021/05/26 01:48:50;;;;;;;4.15;1.95;;;;;;;6.69;100.00;96096.00;1031923;28;20316;-49
2021/05/26 01:49:21;;;;;;;4.28;1.60;;;;;;;6.69;100.00;96096.00;1036120;28;20256;-50
2021/05/26 01:49:52;;;;;;;4.60;1.40;;;;;;;6.73;100.00;96091.47;1036112;28;20256;-48
2021/05/26 01:50:23;;;;;;;4.25;1.40;;;;;;;6.76;100.00;96093.94;1031991;28;20109;-51
2021/05/26 01:50:54;;;;;;;3.35;1.40;;;;;;;6.69;100.00;96089.97;1031820;28;20022;-48
2021/05/26 01:51:25;;;;;;;4.32;1.60;;;;;;;6.74;100.00;96093.19;1032063;28;20285;-51
2021/05/26 01:51:56;;;;;;;3.17;1.38;;;;;;;6.76;100.00;96092.16;1036060;28;20025;-49
2021/05/26 01:52:27;;;;;;;4.95;1.40;;;;;;;6.78;100.00;96092.94;1031918;28;20113;-48
2021/05/26 01:52:59;;;;;;;3.55;1.48;;;;;;;6.78;100.00;96092.09;1031841;28;20015;-48
2021/05/26 01:53:30;;;;;;;4.07;1.30;;;;;;;6.76;100.00;96086.97;1031934;28;21119;-48
2021/05/26 01:54:03;;;;;;;3.00;1.30;;;;;;;6.74;100.00;96085.38;1035944;28;20265;-49
2021/05/26 01:54:35;;;;;;;3.88;1.30;;;;;;;6.72;100.00;96081.97;1036377;28;20257;-50
2021/05/26 01:55:07;;;;;;;2.45;1.20;;;;;;;6.73;100.00;96089.72;1031846;28;21052;-49
2021/05/26 01:55:39;;;;;;;4.05;1.92;;;;;;;6.74;100.00;96082.78;1027994;28;20282;-51
2021/05/26 01:56:20;;;;;;;3.97;1.60;;;;;;;6.76;100.00;96086.97;1031986;28;20312;-49
2021/05/26 01:56:50;;;;;;;3.47;1.50;;;;;;;6.81;100.00;96089.31;1033868;28;20258;-49
2021/05/26 01:57:21;;;;;;;3.40;1.42;;;;;;;6.81;100.00;96084.09;1039991;28;20418;-51
2021/05/26 01:57:53;;;;;;;5.32;1.80;;;;;;;6.82;100.00;96081.41;1040136;28;20063;-48
2021/05/26 01:58:24;;;;;;;3.80;1.58;;;;;;;6.80;100.00;96085.88;1040117;28;20347;-51
2021/05/26 01:58:56;;;;;;;3.90;1.30;;;;;;;6.78;100.00;96077.31;1040055;28;20248;-51
2021/05/26 01:59:27;;;;;;;4.88;1.50;;;;;;;6.77;100.00;96079.97;1035889;28;20257;-49
2021/05/26 01:59:58;;;;;;;4.22;1.38;;;;;;;6.85;100.00;96079.56;1036060;28;20299;-49
2021/05/26 02:00:29;;;;;;;3.10;1.50;;;;;;;6.90;100.00;96082.78;1040253;28;20248;-49
2021/05/26 02:01:00;;;;;;;3.85;1.27;;;;;;;6.88;100.00;96079.41;1035892;28;20809;-50
2021/05/26 02:01:31;;;;;;;3.38;1.60;;;;;;;6.87;100.00;96073.38;1035911;28;20252;-50
2021/05/26 02:02:02;;;;;;;3.25;1.30;;;;;;;6.85;100.00;96074.34;1036064;28;20018;-50
2021/05/26 02:02:34;;;;;;;3.30;1.30;;;;;;;6.84;100.00;96077.91;1031778;28;20406;-50
2021/05/26 02:03:05;;;;;;;7.07;1.42;;;;;;;6.82;100.00;96071.00;1031852;28;20488;-49
2021/05/26 02:03:41;;;;;;;4.60;1.83;;;;;;;6.87;100.00;96075.97;1031713;28;20273;-49
2021/05/26 02:04:12;;;;;;;3.60;1.50;;;;;;;6.86;100.00;96066.47;1032023;28;20704;-49
2021/05/26 02:04:43;;;;;;;4.40;1.50;;;;;;;6.82;100.00;96067.56;1037218;28;20780;-49
2021/05/26 02:05:15;;;;;;;3.47;1.50;;;;;;;6.81;100.00;96069.34;1035844;28;20256;-49
2021/05/26 02:05:46;;;;;;;3.72;1.38;;;;;;;6.81;100.00;96071.06;1035906;28;20251;-50
2021/05/26 02:06:18;;;;;;;3.50;1.50;;;;;;;6.80;100.00;96069.41;1040019;28;20245;-48
2021/05/26 02:07:01;;;;;;;5.40;1.65;;;;;;;6.72;100.00;96075.03;1040090;28;20749;-49
2021/05/26 02:07:32;;;;;;;4.10;1.25;;;;;;;6.74;100.00;96075.78;1039868;28;20291;-50
2021/05/26 02:08:04;;;;;;;4.32;1.55;;;;;;;6.77;100.00;96075.59;1040047;28;20364;-48
2021/05/26 02:08:35;;;;;;;3.45;1.30;;;;;;;6.68;100.00;96052.69;1040078;28;20048;-51
2021/05/26 02:09:06;;;;;;;3.42;1.58;;;;;;;6.82;100.00;96073.59;1038899;28;20300;-49
2021/05/26 02:09:38;;;;;;;3.20;1.25;;;;;;;6.86;100.00;96076.06;1035844;28;20300;-49
2021/05/26 02:10:10;;;;;;;3.67;1.40;;;;;;;6.86;100.00;96069.06;1031908;28;20257;-49
2021/05/26 02:12:45;;;;;;;3.25;1.30;;;;;;;6.83;100.00;96061.41;1039990;28;20303;-48
2021/05/26 02:13:16;;;;;;;5.57;1.67;;;;;;;6.76;100.00;96071.34;1039999;28;20271;-49
2021/05/26 02:13:47;;;;;;;4.40;1.75;;;;;;;6.82;100.00;96075.38;1043827;28;20271;-48
2021/05/26 02:14:18;;;;;;;2.78;1.27;;;;;;;6.78;100.00;96069.50;1035980;28;20275;-52
2021/05/26 02:14:57;;;;;;;2.72;1.30;;;;;;;6.80;100.00;96072.00;1040027;28;20021;-49
2021/05/26 02:15:28;;;;;;;3.20;1.25;;;;;;;6.74;100.00;96065.38;1043504;28;20112;-49
2021/05/26 02:15:59;;;;;;;4.28;1.60;;;;;;;6.68;100.00;96067.44;1043851;28;20279;-50
2021/05/26 02:16:30;;;;;;;3.63;1.40;;;;;;;6.64;100.00;96068.53;1035968;28;20249;-50
2021/05/26 02:17:00;;;;;;;5.25;1.58;;;;;;;6.64;100.00;96061.56;1040085;28;20017;-50
2021/05/26 02:17:31;;;;;;;3.45;1.50;;;;;;;6.63;100.00;96064.28;1040036;28;20288;-50
2021/05/26 02:18:03;;;;;;;3.67;1.20;;;;;;;6.71;100.00;96057.72;1035842;28;20022;-51
2021/05/26 02:18:34;;;;;;;2.47;1.10;;;;;;;6.73;100.00;96055.03;1035868;28;20018;-49
2021/05/26 02:19:05;;;;;;;3.38;1.38;;;;;;;6.74;100.00;96062.78;1041228;28;20303;-50
2021/05/26 02:19:36;;;;;;;4.13;1.70;;;;;;;6.73;100.00;96060.25;1048308;28;20560;-49
2021/05/26 02:20:08;;;;;;;4.30;1.50;;;;;;;6.72;100.00;96059.41;1039875;28;20273;-50
2021/05/26 02:20:39;;;;;;;3.38;1.38;;;;;;;6.79;100.00;96055.56;1031983;28;20265;-50
2021/05/26 02:21:10;;;;;;;3.15;1.17;;;;;;;6.75;100.00;96051.41;1035914;28;20257;-49
2021/05/26 02:21:41;;;;;;;3.33;1.38;;;;;;;6.79;100.00;96057.31;1035972;28;20264;-49
2021/05/26 02:22:12;;;;;;;4.38;1.30;;;;;;;6.81;100.00;96056.31;1035718;28;20336;-50
2021/05/26 02:22:44;;;;;;;2.90;1.27;;;;;;;6.78;100.00;96048.66;1031861;28;20019;-50
2021/05/26 02:23:14;;;;;;;3.55;1.02;;;;;;;6.82;100.00;96047.56;1031848;28;20305;-50
2021/05/26 02:23:46;;;;;;;3.03;1.13;;;;;;;6.77;100.00;96054.78;1035795;28;20384;-49
2021/05/26 02:24:17;;;;;;;2.40;1.40;;;;;;;6.78;100.00;96050.44;1035702;28;20116;-50
2021/05/26 02:24:49;;;;;;;3.28;1.58;;;;;;;6.75;100.00;96043.59;1031871;28;20293;-49
2021/05/26 02:25:20;;;;;;;4.43;1.40;;;;;;;6.75;100.00;96048.81;1031861;28;20344;-50
2021/05/26 02:25:51;;;;;;;5.25;1.58;;;;;;;6.80;100.00;96049.41;1039960;28;20808;-49
2021/05/26 02:26:22;;;;;;;3.20;1.45;;;;;;;6.76;100.00;96044.47;1031614;28;20028;-50
2021/05/26 02:26:53;;;;;;;3.47;1.30;;;;;;;6.75;100.00;96048.81;1036004;28;20029;-48
2021/05/26 02:27:23;;;;;;;2.92;1.50;;;;;;;6.78;100.00;96051.25;1035797;28;20021;-48
2021/05/26 02:27:54;;;;;;;2.60;1.33;;;;;;;6.80;100.00;96045.97;1035861;28;20056;-49
2021/05/26 02:28:26;;;;;;;4.97;1.63;;;;;;;6.76;100.00;96045.28;1031663;28;20532;-49
2021/05/26 02:28:57;;;;;;;2.67;1.30;;;;;;;6.80;100.00;96049.41;1031901;28;20021;-47
2021/05/26 02:29:27;;;;;;;4.53;1.30;;;;;;;6.81;100.00;96047.63;1035925;28;20269;-50
2021/05/26 02:29:58;;;;;;;4.93;1.60;;;;;;;6.82;100.00;96047.56;1031926;28;20026;-49
2021/05/26 02:30:29;;;;;;;3.47;1.30;;;;;;;6.80;100.00;96044.19;1035648;28;20096;-50
2021/05/26 02:31:00;;;;;;;5.05;1.15;;;;;;;6.84;100.00;96047.47;1031976;28;20105;-50